sensor_id;sensor_type;location;lat;lon;timestamp;P1;durP1;ratioP1;P2;durP2;ratioP2
68484;SDS011;55472;50.060;21.960;2023-03-14T00:00:19;9.63;;;3.17;;
68484;SDS011;55472;50.060;21.960;2023-03-14T00:03:05;11.05;;;3.40;;
68484;SDS011;55472;50.060;21.960;2023-03-14T00:05:31;6.57;;;2.70;;
68484;SDS011;55472;50.060;21.960;2023-03-14T00:07:59;6.50;;;2.67;;
68484;SDS011;55472;50.060;21.960;2023-03-14T00:10:25;7.47;;;2.30;;
68484;SDS011;55472;50.060;21.960;2023-03-14T00:12:51;8.30;;;2.78;;
68484;SDS011;55472;50.060;21.960;2023-03-14T00:15:17;7.63;;;3.03;;
68484;SDS011;55472;50.060;21.960;2023-03-14T00:17:44;6.80;;;2.75;;
68484;SDS011;55472;50.060;21.960;2023-03-14T00:20:10;8.63;;;3.27;;
68484;SDS011;55472;50.060;21.960;2023-03-14T00:22:37;7.72;;;3.00;;
68484;SDS011;55472;50.060;21.960;2023-03-14T00:25:04;7.05;;;2.83;;
68484;SDS011;55472;50.060;21.960;2023-03-14T00:27:32;7.63;;;2.85;;
68484;SDS011;55472;50.060;21.960;2023-03-14T00:29:58;6.57;;;2.35;;
68484;SDS011;55472;50.060;21.960;2023-03-14T00:32:25;6.30;;;2.33;;
68484;SDS011;55472;50.060;21.960;2023-03-14T00:34:51;8.90;;;2.70;;
68484;SDS011;55472;50.060;21.960;2023-03-14T00:37:17;6.85;;;3.08;;
68484;SDS011;55472;50.060;21.960;2023-03-14T00:39:43;7.68;;;2.70;;
68484;SDS011;55472;50.060;21.960;2023-03-14T00:42:10;6.43;;;2.45;;
68484;SDS011;55472;50.060;21.960;2023-03-14T00:44:36;7.83;;;2.70;;
68484;SDS011;55472;50.060;21.960;2023-03-14T00:47:03;6.00;;;2.40;;
68484;SDS011;55472;50.060;21.960;2023-03-14T00:49:29;6.65;;;2.80;;
68484;SDS011;55472;50.060;21.960;2023-03-14T00:51:55;8.32;;;3.25;;
68484;SDS011;55472;50.060;21.960;2023-03-14T00:54:21;5.85;;;2.22;;
68484;SDS011;55472;50.060;21.960;2023-03-14T00:56:48;7.87;;;2.80;;
68484;SDS011;55472;50.060;21.960;2023-03-14T00:59:15;8.60;;;3.17;;
68484;SDS011;55472;50.060;21.960;2023-03-14T01:01:43;7.65;;;2.70;;
68484;SDS011;55472;50.060;21.960;2023-03-14T01:04:09;6.50;;;2.58;;
68484;SDS011;55472;50.060;21.960;2023-03-14T01:06:36;7.82;;;2.63;;
68484;SDS011;55472;50.060;21.960;2023-03-14T01:09:02;8.67;;;3.03;;
68484;SDS011;55472;50.060;21.960;2023-03-14T01:11:32;6.80;;;2.85;;
68484;SDS011;55472;50.060;21.960;2023-03-14T01:14:00;7.43;;;2.40;;
68484;SDS011;55472;50.060;21.960;2023-03-14T01:16:28;6.95;;;2.45;;
68484;SDS011;55472;50.060;21.960;2023-03-14T01:18:57;6.47;;;2.38;;
68484;SDS011;55472;50.060;21.960;2023-03-14T01:21:25;5.03;;;2.10;;
68484;SDS011;55472;50.060;21.960;2023-03-14T01:23:55;10.77;;;2.60;;
68484;SDS011;55472;50.060;21.960;2023-03-14T01:26:24;6.60;;;2.58;;
68484;SDS011;55472;50.060;21.960;2023-03-14T01:28:53;6.10;;;2.40;;
68484;SDS011;55472;50.060;21.960;2023-03-14T01:31:20;7.30;;;2.28;;
68484;SDS011;55472;50.060;21.960;2023-03-14T01:33:47;5.40;;;2.23;;
68484;SDS011;55472;50.060;21.960;2023-03-14T01:36:13;10.90;;;2.72;;
68484;SDS011;55472;50.060;21.960;2023-03-14T01:38:39;4.95;;;1.77;;
68484;SDS011;55472;50.060;21.960;2023-03-14T01:41:12;7.85;;;2.25;;
68484;SDS011;55472;50.060;21.960;2023-03-14T01:43:43;6.28;;;2.08;;
68484;SDS011;55472;50.060;21.960;2023-03-14T01:51:42;5.35;;;1.88;;
68484;SDS011;55472;50.060;21.960;2023-03-14T01:54:34;4.55;;;1.95;;
68484;SDS011;55472;50.060;21.960;2023-03-14T02:00:06;5.70;;;1.80;;
68484;SDS011;55472;50.060;21.960;2023-03-14T02:02:38;6.85;;;2.05;;
68484;SDS011;55472;50.060;21.960;2023-03-14T02:05:10;5.32;;;1.98;;
68484;SDS011;55472;50.060;21.960;2023-03-14T02:07:44;4.80;;;1.80;;
68484;SDS011;55472;50.060;21.960;2023-03-14T02:10:17;7.22;;;2.20;;
68484;SDS011;55472;50.060;21.960;2023-03-14T02:12:48;5.00;;;2.00;;
68484;SDS011;55472;50.060;21.960;2023-03-14T02:15:16;6.05;;;2.25;;
68484;SDS011;55472;50.060;21.960;2023-03-14T02:17:43;5.50;;;2.05;;
68484;SDS011;55472;50.060;21.960;2023-03-14T02:20:28;5.55;;;1.83;;
68484;SDS011;55472;50.060;21.960;2023-03-14T02:23:05;5.38;;;1.98;;
68484;SDS011;55472;50.060;21.960;2023-03-14T02:28:16;5.80;;;1.83;;
68484;SDS011;55472;50.060;21.960;2023-03-14T02:30:42;4.97;;;1.70;;
68484;SDS011;55472;50.060;21.960;2023-03-14T02:33:10;5.07;;;2.10;;
68484;SDS011;55472;50.060;21.960;2023-03-14T02:35:41;7.07;;;2.42;;
68484;SDS011;55472;50.060;21.960;2023-03-14T02:38:20;5.00;;;1.97;;
68484;SDS011;55472;50.060;21.960;2023-03-14T02:41:07;6.97;;;2.20;;
68484;SDS011;55472;50.060;21.960;2023-03-14T02:43:33;5.78;;;2.30;;
68484;SDS011;55472;50.060;21.960;2023-03-14T02:46:00;5.03;;;1.83;;
68484;SDS011;55472;50.060;21.960;2023-03-14T02:48:38;5.25;;;1.98;;
68484;SDS011;55472;50.060;21.960;2023-03-14T02:51:10;6.43;;;2.00;;
68484;SDS011;55472;50.060;21.960;2023-03-14T02:53:38;5.72;;;1.90;;
68484;SDS011;55472;50.060;21.960;2023-03-14T02:56:06;6.03;;;2.55;;
68484;SDS011;55472;50.060;21.960;2023-03-14T02:58:34;4.72;;;1.50;;
68484;SDS011;55472;50.060;21.960;2023-03-14T03:01:00;6.30;;;2.17;;
68484;SDS011;55472;50.060;21.960;2023-03-14T03:03:27;7.27;;;1.90;;
68484;SDS011;55472;50.060;21.960;2023-03-14T03:05:53;4.82;;;1.83;;
68484;SDS011;55472;50.060;21.960;2023-03-14T03:08:22;5.15;;;1.80;;
68484;SDS011;55472;50.060;21.960;2023-03-14T03:10:51;5.80;;;1.80;;
68484;SDS011;55472;50.060;21.960;2023-03-14T03:13:19;4.93;;;1.73;;
68484;SDS011;55472;50.060;21.960;2023-03-14T03:15:45;6.93;;;1.80;;
68484;SDS011;55472;50.060;21.960;2023-03-14T03:18:12;4.97;;;1.80;;
68484;SDS011;55472;50.060;21.960;2023-03-14T03:20:38;5.20;;;1.52;;
68484;SDS011;55472;50.060;21.960;2023-03-14T03:23:04;5.75;;;2.17;;
68484;SDS011;55472;50.060;21.960;2023-03-14T03:25:31;7.38;;;2.28;;
68484;SDS011;55472;50.060;21.960;2023-03-14T03:27:57;5.27;;;2.00;;
68484;SDS011;55472;50.060;21.960;2023-03-14T03:30:24;5.38;;;1.70;;
68484;SDS011;55472;50.060;21.960;2023-03-14T03:32:50;4.38;;;1.55;;
68484;SDS011;55472;50.060;21.960;2023-03-14T03:35:16;4.68;;;1.52;;
68484;SDS011;55472;50.060;21.960;2023-03-14T03:37:43;5.13;;;1.90;;
68484;SDS011;55472;50.060;21.960;2023-03-14T03:40:09;5.70;;;1.73;;
68484;SDS011;55472;50.060;21.960;2023-03-14T03:42:36;5.03;;;1.67;;
68484;SDS011;55472;50.060;21.960;2023-03-14T03:45:02;4.20;;;1.50;;
68484;SDS011;55472;50.060;21.960;2023-03-14T03:47:30;4.68;;;1.42;;
68484;SDS011;55472;50.060;21.960;2023-03-14T03:49:56;3.67;;;1.33;;
68484;SDS011;55472;50.060;21.960;2023-03-14T03:52:23;3.93;;;1.50;;
68484;SDS011;55472;50.060;21.960;2023-03-14T03:54:49;4.57;;;1.60;;
68484;SDS011;55472;50.060;21.960;2023-03-14T03:57:15;4.43;;;1.70;;
68484;SDS011;55472;50.060;21.960;2023-03-14T03:59:41;7.25;;;2.03;;
68484;SDS011;55472;50.060;21.960;2023-03-14T04:02:08;5.78;;;1.92;;
68484;SDS011;55472;50.060;21.960;2023-03-14T04:04:34;4.77;;;1.70;;
68484;SDS011;55472;50.060;21.960;2023-03-14T04:07:00;4.82;;;1.35;;
68484;SDS011;55472;50.060;21.960;2023-03-14T04:09:26;5.50;;;1.70;;
68484;SDS011;55472;50.060;21.960;2023-03-14T04:11:52;4.95;;;1.30;;
68484;SDS011;55472;50.060;21.960;2023-03-14T04:14:19;5.90;;;1.88;;
68484;SDS011;55472;50.060;21.960;2023-03-14T04:16:45;5.93;;;2.20;;
68484;SDS011;55472;50.060;21.960;2023-03-14T04:19:11;4.82;;;1.80;;
68484;SDS011;55472;50.060;21.960;2023-03-14T04:21:37;5.78;;;1.67;;
68484;SDS011;55472;50.060;21.960;2023-03-14T04:24:10;5.70;;;1.73;;
68484;SDS011;55472;50.060;21.960;2023-03-14T04:26:37;4.25;;;1.52;;
68484;SDS011;55472;50.060;21.960;2023-03-14T04:29:03;5.43;;;2.03;;
68484;SDS011;55472;50.060;21.960;2023-03-14T04:31:29;6.57;;;1.50;;
68484;SDS011;55472;50.060;21.960;2023-03-14T04:33:55;5.40;;;1.70;;
68484;SDS011;55472;50.060;21.960;2023-03-14T04:36:22;5.80;;;1.75;;
68484;SDS011;55472;50.060;21.960;2023-03-14T04:38:48;6.60;;;1.92;;
68484;SDS011;55472;50.060;21.960;2023-03-14T04:41:14;4.83;;;1.90;;
68484;SDS011;55472;50.060;21.960;2023-03-14T04:43:40;5.28;;;1.50;;
68484;SDS011;55472;50.060;21.960;2023-03-14T04:46:06;7.20;;;2.00;;
68484;SDS011;55472;50.060;21.960;2023-03-14T04:48:32;6.13;;;1.75;;
68484;SDS011;55472;50.060;21.960;2023-03-14T04:50:59;5.20;;;1.80;;
68484;SDS011;55472;50.060;21.960;2023-03-14T04:53:25;6.23;;;2.10;;
68484;SDS011;55472;50.060;21.960;2023-03-14T04:55:52;5.70;;;2.30;;
68484;SDS011;55472;50.060;21.960;2023-03-14T04:58:20;4.38;;;1.40;;
68484;SDS011;55472;50.060;21.960;2023-03-14T05:00:48;8.80;;;2.15;;
68484;SDS011;55472;50.060;21.960;2023-03-14T05:03:15;6.25;;;2.30;;
68484;SDS011;55472;50.060;21.960;2023-03-14T05:05:43;4.70;;;1.73;;
68484;SDS011;55472;50.060;21.960;2023-03-14T05:08:10;5.07;;;1.95;;
68484;SDS011;55472;50.060;21.960;2023-03-14T05:10:37;4.78;;;1.90;;
68484;SDS011;55472;50.060;21.960;2023-03-14T05:13:03;7.10;;;1.85;;
68484;SDS011;55472;50.060;21.960;2023-03-14T05:15:29;4.55;;;1.60;;
68484;SDS011;55472;50.060;21.960;2023-03-14T05:17:55;6.33;;;2.00;;
68484;SDS011;55472;50.060;21.960;2023-03-14T05:20:22;5.30;;;2.00;;
68484;SDS011;55472;50.060;21.960;2023-03-14T05:22:48;4.80;;;1.98;;
68484;SDS011;55472;50.060;21.960;2023-03-14T05:25:14;7.25;;;1.60;;
68484;SDS011;55472;50.060;21.960;2023-03-14T05:27:40;4.10;;;1.52;;
68484;SDS011;55472;50.060;21.960;2023-03-14T05:30:07;5.37;;;1.63;;
68484;SDS011;55472;50.060;21.960;2023-03-14T05:32:34;8.15;;;2.03;;
68484;SDS011;55472;50.060;21.960;2023-03-14T05:35:00;4.88;;;1.60;;
68484;SDS011;55472;50.060;21.960;2023-03-14T05:37:26;7.18;;;2.63;;
68484;SDS011;55472;50.060;21.960;2023-03-14T05:39:53;6.38;;;2.40;;
68484;SDS011;55472;50.060;21.960;2023-03-14T05:42:20;7.13;;;1.93;;
68484;SDS011;55472;50.060;21.960;2023-03-14T05:44:46;4.97;;;1.55;;
68484;SDS011;55472;50.060;21.960;2023-03-14T05:47:12;5.38;;;2.00;;
68484;SDS011;55472;50.060;21.960;2023-03-14T05:49:39;5.53;;;2.15;;
68484;SDS011;55472;50.060;21.960;2023-03-14T05:52:05;6.35;;;2.50;;
68484;SDS011;55472;50.060;21.960;2023-03-14T05:54:31;4.03;;;1.50;;
68484;SDS011;55472;50.060;21.960;2023-03-14T05:56:57;4.35;;;1.48;;
68484;SDS011;55472;50.060;21.960;2023-03-14T05:59:24;5.20;;;1.88;;
68484;SDS011;55472;50.060;21.960;2023-03-14T06:01:50;6.18;;;1.70;;
68484;SDS011;55472;50.060;21.960;2023-03-14T06:04:16;6.45;;;2.13;;
68484;SDS011;55472;50.060;21.960;2023-03-14T06:06:42;5.20;;;1.80;;
68484;SDS011;55472;50.060;21.960;2023-03-14T06:09:09;6.45;;;1.70;;
68484;SDS011;55472;50.060;21.960;2023-03-14T06:11:35;5.03;;;1.80;;
68484;SDS011;55472;50.060;21.960;2023-03-14T06:14:01;3.97;;;1.38;;
68484;SDS011;55472;50.060;21.960;2023-03-14T06:16:27;5.68;;;1.90;;
68484;SDS011;55472;50.060;21.960;2023-03-14T06:18:53;3.77;;;1.40;;
68484;SDS011;55472;50.060;21.960;2023-03-14T06:21:19;5.03;;;1.60;;
68484;SDS011;55472;50.060;21.960;2023-03-14T06:23:46;6.10;;;1.83;;
68484;SDS011;55472;50.060;21.960;2023-03-14T06:26:12;4.82;;;1.65;;
68484;SDS011;55472;50.060;21.960;2023-03-14T06:28:38;6.97;;;1.80;;
68484;SDS011;55472;50.060;21.960;2023-03-14T06:31:05;5.50;;;1.67;;
68484;SDS011;55472;50.060;21.960;2023-03-14T06:33:31;5.70;;;1.77;;
68484;SDS011;55472;50.060;21.960;2023-03-14T06:35:57;4.00;;;1.33;;
68484;SDS011;55472;50.060;21.960;2023-03-14T06:38:24;4.95;;;1.60;;
68484;SDS011;55472;50.060;21.960;2023-03-14T06:40:50;5.47;;;1.88;;
68484;SDS011;55472;50.060;21.960;2023-03-14T06:43:17;5.80;;;1.80;;
68484;SDS011;55472;50.060;21.960;2023-03-14T06:45:43;5.28;;;1.63;;
68484;SDS011;55472;50.060;21.960;2023-03-14T06:48:09;6.60;;;2.00;;
68484;SDS011;55472;50.060;21.960;2023-03-14T06:50:35;4.45;;;1.70;;
68484;SDS011;55472;50.060;21.960;2023-03-14T06:53:02;4.63;;;1.80;;
68484;SDS011;55472;50.060;21.960;2023-03-14T06:55:28;6.27;;;1.90;;
68484;SDS011;55472;50.060;21.960;2023-03-14T06:57:54;6.20;;;1.92;;
68484;SDS011;55472;50.060;21.960;2023-03-14T07:00:20;8.13;;;3.17;;
68484;SDS011;55472;50.060;21.960;2023-03-14T07:02:47;4.40;;;1.50;;
68484;SDS011;55472;50.060;21.960;2023-03-14T07:05:13;4.68;;;1.85;;
68484;SDS011;55472;50.060;21.960;2023-03-14T07:07:39;6.27;;;1.93;;
68484;SDS011;55472;50.060;21.960;2023-03-14T07:10:06;5.70;;;2.30;;
68484;SDS011;55472;50.060;21.960;2023-03-14T07:12:34;6.82;;;2.30;;
68484;SDS011;55472;50.060;21.960;2023-03-14T07:15:00;5.65;;;1.98;;
68484;SDS011;55472;50.060;21.960;2023-03-14T07:17:26;5.00;;;1.95;;
68484;SDS011;55472;50.060;21.960;2023-03-14T07:19:52;4.90;;;1.90;;
68484;SDS011;55472;50.060;21.960;2023-03-14T07:22:19;8.15;;;2.33;;
68484;SDS011;55472;50.060;21.960;2023-03-14T07:24:45;7.28;;;1.98;;
68484;SDS011;55472;50.060;21.960;2023-03-14T07:27:11;8.98;;;1.80;;
68484;SDS011;55472;50.060;21.960;2023-03-14T07:29:37;4.63;;;1.77;;
68484;SDS011;55472;50.060;21.960;2023-03-14T07:32:04;4.80;;;1.50;;
68484;SDS011;55472;50.060;21.960;2023-03-14T07:34:30;5.90;;;1.77;;
68484;SDS011;55472;50.060;21.960;2023-03-14T07:36:56;6.22;;;1.80;;
68484;SDS011;55472;50.060;21.960;2023-03-14T07:39:22;5.50;;;2.00;;
68484;SDS011;55472;50.060;21.960;2023-03-14T07:41:48;5.05;;;1.77;;
68484;SDS011;55472;50.060;21.960;2023-03-14T07:44:14;6.97;;;2.00;;
68484;SDS011;55472;50.060;21.960;2023-03-14T07:46:41;5.55;;;1.80;;
68484;SDS011;55472;50.060;21.960;2023-03-14T07:49:07;7.72;;;2.33;;
68484;SDS011;55472;50.060;21.960;2023-03-14T07:51:33;5.03;;;1.73;;
68484;SDS011;55472;50.060;21.960;2023-03-14T07:53:59;5.60;;;1.85;;
68484;SDS011;55472;50.060;21.960;2023-03-14T07:56:26;5.90;;;1.90;;
68484;SDS011;55472;50.060;21.960;2023-03-14T07:58:52;7.07;;;2.30;;
68484;SDS011;55472;50.060;21.960;2023-03-14T08:01:18;7.53;;;2.00;;
68484;SDS011;55472;50.060;21.960;2023-03-14T08:03:44;8.52;;;2.33;;
68484;SDS011;55472;50.060;21.960;2023-03-14T08:06:11;6.00;;;1.73;;
68484;SDS011;55472;50.060;21.960;2023-03-14T08:08:37;4.70;;;1.70;;
68484;SDS011;55472;50.060;21.960;2023-03-14T08:11:04;5.30;;;1.83;;
68484;SDS011;55472;50.060;21.960;2023-03-14T08:13:34;5.93;;;1.70;;
68484;SDS011;55472;50.060;21.960;2023-03-14T08:16:02;6.68;;;1.70;;
68484;SDS011;55472;50.060;21.960;2023-03-14T08:18:29;5.07;;;1.85;;
68484;SDS011;55472;50.060;21.960;2023-03-14T08:20:56;5.37;;;1.70;;
68484;SDS011;55472;50.060;21.960;2023-03-14T08:23:22;6.43;;;1.92;;
68484;SDS011;55472;50.060;21.960;2023-03-14T08:25:49;7.03;;;2.40;;
68484;SDS011;55472;50.060;21.960;2023-03-14T08:28:16;6.88;;;2.08;;
68484;SDS011;55472;50.060;21.960;2023-03-14T08:30:43;8.70;;;2.10;;
68484;SDS011;55472;50.060;21.960;2023-03-14T08:33:10;4.97;;;2.10;;
68484;SDS011;55472;50.060;21.960;2023-03-14T08:35:39;6.07;;;1.73;;
68484;SDS011;55472;50.060;21.960;2023-03-14T08:38:05;4.80;;;1.65;;
68484;SDS011;55472;50.060;21.960;2023-03-14T08:40:32;5.63;;;1.98;;
68484;SDS011;55472;50.060;21.960;2023-03-14T08:42:58;6.85;;;2.10;;
68484;SDS011;55472;50.060;21.960;2023-03-14T08:45:25;5.83;;;1.63;;
68484;SDS011;55472;50.060;21.960;2023-03-14T08:47:51;7.65;;;2.03;;
68484;SDS011;55472;50.060;21.960;2023-03-14T08:50:17;5.30;;;1.80;;
68484;SDS011;55472;50.060;21.960;2023-03-14T08:52:43;6.60;;;1.52;;
68484;SDS011;55472;50.060;21.960;2023-03-14T08:55:10;4.63;;;1.60;;
68484;SDS011;55472;50.060;21.960;2023-03-14T08:57:36;5.00;;;2.10;;
68484;SDS011;55472;50.060;21.960;2023-03-14T09:00:03;6.22;;;2.05;;
68484;SDS011;55472;50.060;21.960;2023-03-14T09:02:35;5.47;;;1.45;;
68484;SDS011;55472;50.060;21.960;2023-03-14T09:05:02;5.82;;;1.58;;
68484;SDS011;55472;50.060;21.960;2023-03-14T09:07:28;7.68;;;1.60;;
68484;SDS011;55472;50.060;21.960;2023-03-14T09:09:54;3.90;;;1.50;;
68484;SDS011;55472;50.060;21.960;2023-03-14T09:12:20;3.33;;;1.10;;
68484;SDS011;55472;50.060;21.960;2023-03-14T09:14:47;5.05;;;1.80;;
68484;SDS011;55472;50.060;21.960;2023-03-14T09:17:13;5.18;;;1.63;;
68484;SDS011;55472;50.060;21.960;2023-03-14T09:19:39;4.83;;;1.67;;
68484;SDS011;55472;50.060;21.960;2023-03-14T09:22:05;5.35;;;1.50;;
68484;SDS011;55472;50.060;21.960;2023-03-14T09:24:31;5.30;;;1.65;;
68484;SDS011;55472;50.060;21.960;2023-03-14T09:26:57;6.20;;;2.17;;
68484;SDS011;55472;50.060;21.960;2023-03-14T09:29:24;11.98;;;2.10;;
68484;SDS011;55472;50.060;21.960;2023-03-14T09:31:50;4.55;;;1.60;;
68484;SDS011;55472;50.060;21.960;2023-03-14T09:34:16;5.00;;;1.40;;
68484;SDS011;55472;50.060;21.960;2023-03-14T09:36:43;6.78;;;1.98;;
68484;SDS011;55472;50.060;21.960;2023-03-14T09:39:10;6.27;;;1.87;;
68484;SDS011;55472;50.060;21.960;2023-03-14T09:41:41;5.10;;;1.73;;
68484;SDS011;55472;50.060;21.960;2023-03-14T09:46:43;7.17;;;1.80;;
68484;SDS011;55472;50.060;21.960;2023-03-14T09:49:20;5.60;;;1.50;;
68484;SDS011;55472;50.060;21.960;2023-03-14T09:51:51;4.85;;;1.90;;
68484;SDS011;55472;50.060;21.960;2023-03-14T09:54:29;7.23;;;2.00;;
68484;SDS011;55472;50.060;21.960;2023-03-14T09:57:17;6.55;;;2.15;;
68484;SDS011;55472;50.060;21.960;2023-03-14T09:59:46;6.68;;;2.00;;
68484;SDS011;55472;50.060;21.960;2023-03-14T10:02:18;6.53;;;1.90;;
68484;SDS011;55472;50.060;21.960;2023-03-14T10:04:54;5.78;;;1.55;;
68484;SDS011;55472;50.060;21.960;2023-03-14T10:07:30;4.75;;;1.52;;
68484;SDS011;55472;50.060;21.960;2023-03-14T10:09:58;4.30;;;1.60;;
68484;SDS011;55472;50.060;21.960;2023-03-14T10:12:34;5.85;;;1.80;;
68484;SDS011;55472;50.060;21.960;2023-03-14T10:15:03;3.78;;;1.60;;
68484;SDS011;55472;50.060;21.960;2023-03-14T10:17:39;4.15;;;1.48;;
68484;SDS011;55472;50.060;21.960;2023-03-14T10:23:05;5.68;;;1.98;;
68484;SDS011;55472;50.060;21.960;2023-03-14T10:25:40;6.38;;;2.45;;
68484;SDS011;55472;50.060;21.960;2023-03-14T10:28:25;6.30;;;2.20;;
68484;SDS011;55472;50.060;21.960;2023-03-14T10:30:55;5.60;;;1.80;;
68484;SDS011;55472;50.060;21.960;2023-03-14T10:33:23;4.65;;;2.00;;
68484;SDS011;55472;50.060;21.960;2023-03-14T10:35:59;5.18;;;1.90;;
68484;SDS011;55472;50.060;21.960;2023-03-14T10:38:28;5.60;;;1.93;;
68484;SDS011;55472;50.060;21.960;2023-03-14T10:41:00;5.88;;;2.10;;
68484;SDS011;55472;50.060;21.960;2023-03-14T10:43:33;9.52;;;2.63;;
68484;SDS011;55472;50.060;21.960;2023-03-14T10:46:06;6.18;;;1.83;;
68484;SDS011;55472;50.060;21.960;2023-03-14T10:48:38;5.78;;;1.77;;
68484;SDS011;55472;50.060;21.960;2023-03-14T10:51:17;5.43;;;2.10;;
68484;SDS011;55472;50.060;21.960;2023-03-14T10:53:56;5.25;;;2.15;;
68484;SDS011;55472;50.060;21.960;2023-03-14T10:56:39;4.38;;;1.80;;
68484;SDS011;55472;50.060;21.960;2023-03-14T10:59:12;4.90;;;1.67;;
68484;SDS011;55472;50.060;21.960;2023-03-14T11:07:38;6.55;;;1.88;;
68484;SDS011;55472;50.060;21.960;2023-03-14T11:10:20;4.85;;;1.95;;
68484;SDS011;55472;50.060;21.960;2023-03-14T11:15:50;6.10;;;2.25;;
68484;SDS011;55472;50.060;21.960;2023-03-14T11:21:55;4.45;;;1.80;;
68484;SDS011;55472;50.060;21.960;2023-03-14T11:25:15;7.30;;;2.20;;
68484;SDS011;55472;50.060;21.960;2023-03-14T11:33:22;5.45;;;2.05;;
68484;SDS011;55472;50.060;21.960;2023-03-14T11:36:08;4.63;;;1.85;;
68484;SDS011;55472;50.060;21.960;2023-03-14T11:38:38;5.20;;;1.95;;
68484;SDS011;55472;50.060;21.960;2023-03-14T11:41:20;6.77;;;2.10;;
68484;SDS011;55472;50.060;21.960;2023-03-14T11:43:55;5.18;;;2.00;;
68484;SDS011;55472;50.060;21.960;2023-03-14T11:48:57;5.60;;;2.20;;
68484;SDS011;55472;50.060;21.960;2023-03-14T11:51:50;5.90;;;2.17;;
68484;SDS011;55472;50.060;21.960;2023-03-14T11:57:19;4.80;;;1.85;;
68484;SDS011;55472;50.060;21.960;2023-03-14T12:02:45;6.65;;;2.55;;
68484;SDS011;55472;50.060;21.960;2023-03-14T12:05:28;8.48;;;2.95;;
68484;SDS011;55472;50.060;21.960;2023-03-14T12:10:54;5.68;;;2.25;;
68484;SDS011;55472;50.060;21.960;2023-03-14T12:13:30;7.55;;;2.78;;
68484;SDS011;55472;50.060;21.960;2023-03-14T12:16:03;7.35;;;2.10;;
68484;SDS011;55472;50.060;21.960;2023-03-14T12:18:51;5.80;;;1.80;;
68484;SDS011;55472;50.060;21.960;2023-03-14T12:21:19;7.13;;;1.95;;
68484;SDS011;55472;50.060;21.960;2023-03-14T12:23:52;6.15;;;2.05;;
68484;SDS011;55472;50.060;21.960;2023-03-14T12:26:24;6.88;;;2.22;;
68484;SDS011;55472;50.060;21.960;2023-03-14T12:45:36;6.20;;;2.03;;
68484;SDS011;55472;50.060;21.960;2023-03-14T12:48:22;8.07;;;2.43;;
68484;SDS011;55472;50.060;21.960;2023-03-14T12:50:55;6.80;;;2.53;;
68484;SDS011;55472;50.060;21.960;2023-03-14T13:02:10;6.03;;;2.05;;
68484;SDS011;55472;50.060;21.960;2023-03-14T13:05:04;7.18;;;2.35;;
68484;SDS011;55472;50.060;21.960;2023-03-14T13:12:40;21.00;;;8.65;;
68484;SDS011;55472;50.060;21.960;2023-03-14T13:18:01;21.42;;;9.43;;
68484;SDS011;55472;50.060;21.960;2023-03-14T13:20:36;13.80;;;6.35;;
68484;SDS011;55472;50.060;21.960;2023-03-14T13:25:50;13.13;;;7.43;;
68484;SDS011;55472;50.060;21.960;2023-03-14T13:28:17;8.27;;;4.70;;
68484;SDS011;55472;50.060;21.960;2023-03-14T13:30:48;7.20;;;2.65;;
68484;SDS011;55472;50.060;21.960;2023-03-14T13:33:18;8.18;;;3.97;;
68484;SDS011;55472;50.060;21.960;2023-03-14T13:35:47;8.40;;;2.30;;
68484;SDS011;55472;50.060;21.960;2023-03-14T13:38:26;7.30;;;3.08;;
68484;SDS011;55472;50.060;21.960;2023-03-14T13:40:55;8.02;;;2.85;;
68484;SDS011;55472;50.060;21.960;2023-03-14T13:43:28;6.10;;;2.53;;
68484;SDS011;55472;50.060;21.960;2023-03-14T13:48:39;10.23;;;4.00;;
68484;SDS011;55472;50.060;21.960;2023-03-14T13:51:24;9.15;;;4.18;;
68484;SDS011;55472;50.060;21.960;2023-03-14T13:53:55;9.00;;;4.50;;
68484;SDS011;55472;50.060;21.960;2023-03-14T13:56:22;7.40;;;3.53;;
68484;SDS011;55472;50.060;21.960;2023-03-14T13:58:51;10.85;;;3.85;;
68484;SDS011;55472;50.060;21.960;2023-03-14T14:04:08;8.03;;;3.20;;
68484;SDS011;55472;50.060;21.960;2023-03-14T14:06:44;9.82;;;3.13;;
68484;SDS011;55472;50.060;21.960;2023-03-14T14:09:14;8.90;;;2.90;;
68484;SDS011;55472;50.060;21.960;2023-03-14T14:14:20;7.40;;;3.00;;
68484;SDS011;55472;50.060;21.960;2023-03-14T14:17:00;6.45;;;3.13;;
68484;SDS011;55472;50.060;21.960;2023-03-14T14:19:31;8.95;;;3.80;;
68484;SDS011;55472;50.060;21.960;2023-03-14T14:22:00;10.65;;;3.00;;
68484;SDS011;55472;50.060;21.960;2023-03-14T14:24:30;10.32;;;3.83;;
68484;SDS011;55472;50.060;21.960;2023-03-14T14:27:02;7.78;;;3.00;;
68484;SDS011;55472;50.060;21.960;2023-03-14T14:29:35;9.47;;;3.60;;
68484;SDS011;55472;50.060;21.960;2023-03-14T14:37:40;9.30;;;4.27;;
68484;SDS011;55472;50.060;21.960;2023-03-14T14:40:08;8.27;;;3.55;;
68484;SDS011;55472;50.060;21.960;2023-03-14T14:42:46;8.32;;;3.08;;
68484;SDS011;55472;50.060;21.960;2023-03-14T14:45:14;9.65;;;4.03;;
68484;SDS011;55472;50.060;21.960;2023-03-14T14:48:08;8.82;;;3.50;;
68484;SDS011;55472;50.060;21.960;2023-03-14T14:50:38;4.90;;;1.95;;
68484;SDS011;55472;50.060;21.960;2023-03-14T14:55:58;11.18;;;5.20;;
68484;SDS011;55472;50.060;21.960;2023-03-14T14:58:33;8.48;;;3.25;;
68484;SDS011;55472;50.060;21.960;2023-03-14T15:01:07;10.57;;;4.57;;
68484;SDS011;55472;50.060;21.960;2023-03-14T15:03:45;14.73;;;5.35;;
68484;SDS011;55472;50.060;21.960;2023-03-14T15:06:16;11.60;;;5.10;;
68484;SDS011;55472;50.060;21.960;2023-03-14T15:08:44;11.43;;;4.03;;
68484;SDS011;55472;50.060;21.960;2023-03-14T15:11:18;7.25;;;3.20;;
68484;SDS011;55472;50.060;21.960;2023-03-14T15:13:49;12.15;;;4.35;;
68484;SDS011;55472;50.060;21.960;2023-03-14T15:16:20;10.98;;;4.18;;
68484;SDS011;55472;50.060;21.960;2023-03-14T15:18:55;8.93;;;3.58;;
68484;SDS011;55472;50.060;21.960;2023-03-14T15:21:31;9.57;;;3.80;;
68484;SDS011;55472;50.060;21.960;2023-03-14T15:23:58;9.05;;;4.07;;
68484;SDS011;55472;50.060;21.960;2023-03-14T15:26:25;10.77;;;4.40;;
68484;SDS011;55472;50.060;21.960;2023-03-14T15:28:52;12.05;;;4.53;;
68484;SDS011;55472;50.060;21.960;2023-03-14T15:31:20;16.15;;;5.93;;
68484;SDS011;55472;50.060;21.960;2023-03-14T15:33:49;10.27;;;4.20;;
68484;SDS011;55472;50.060;21.960;2023-03-14T15:36:22;9.93;;;3.67;;
68484;SDS011;55472;50.060;21.960;2023-03-14T15:38:54;13.85;;;4.75;;
68484;SDS011;55472;50.060;21.960;2023-03-14T15:41:21;15.32;;;4.80;;
68484;SDS011;55472;50.060;21.960;2023-03-14T15:43:48;14.88;;;4.43;;
68484;SDS011;55472;50.060;21.960;2023-03-14T15:46:14;9.27;;;3.80;;
68484;SDS011;55472;50.060;21.960;2023-03-14T15:48:43;14.20;;;4.15;;
68484;SDS011;55472;50.060;21.960;2023-03-14T15:51:10;11.35;;;4.50;;
68484;SDS011;55472;50.060;21.960;2023-03-14T15:53:37;9.43;;;3.70;;
68484;SDS011;55472;50.060;21.960;2023-03-14T15:56:04;12.00;;;5.85;;
68484;SDS011;55472;50.060;21.960;2023-03-14T15:58:32;13.07;;;5.73;;
68484;SDS011;55472;50.060;21.960;2023-03-14T16:01:00;24.80;;;9.15;;
68484;SDS011;55472;50.060;21.960;2023-03-14T16:03:27;22.35;;;8.20;;
68484;SDS011;55472;50.060;21.960;2023-03-14T16:05:55;13.70;;;5.20;;
68484;SDS011;55472;50.060;21.960;2023-03-14T16:08:22;9.57;;;3.53;;
68484;SDS011;55472;50.060;21.960;2023-03-14T16:10:51;9.37;;;3.70;;
68484;SDS011;55472;50.060;21.960;2023-03-14T16:13:17;11.82;;;4.10;;
68484;SDS011;55472;50.060;21.960;2023-03-14T16:15:56;10.32;;;4.53;;
68484;SDS011;55472;50.060;21.960;2023-03-14T16:18:28;13.05;;;5.55;;
68484;SDS011;55472;50.060;21.960;2023-03-14T16:21:01;10.85;;;4.25;;
68484;SDS011;55472;50.060;21.960;2023-03-14T16:23:39;13.70;;;4.67;;